Time;durP1;ratioP1;P1;durP2;ratioP2;P2;SDS_P1;SDS_P2;PMS_P1;PMS_P2;Temp;Humidity;BMP_temperature;BMP_pressure;BME280_temperature;BME280_humidity;BME280_pressure;Samples;Min_cycle;Max_cycle;Signal;HPM_P1;HPM_P2
2021/05/18 00:02:08;;;;;;;;;;;384.30;2227.20;;;;;;5113990;28;19912;-66
2021/05/18 00:04:34;;;;;;;;;;;384.30;2201.60;;;;;;5114547;28;20327;-68
2021/05/18 00:07:00;;;;;;;;;;;384.40;2201.60;;;;;;5114335;28;19994;-67
2021/05/18 00:12:09;;;;;;;;;;;384.40;2176.00;;;;;;5114343;28;19918;-66
2021/05/18 00:14:36;;;;;;;;;;;384.60;2176.00;;;;;;5114133;28;19915;-70
2021/05/18 00:17:02;;;;;;;;;;;384.60;2150.40;;;;;;5114024;28;19919;-67
2021/05/18 00:19:27;;;;;;;;;;;384.60;2150.40;;;;;;5114255;28;20336;-68
2021/05/18 00:21:53;;;;;;;;;;;384.60;2150.40;;;;;;5114338;28;19939;-66
2021/05/18 00:24:19;;;;;;;;;;;384.60;2124.80;;;;;;5114140;28;20010;-66
2021/05/18 00:26:44;;;;;;;;;;;384.60;2124.80;;;;;;5111745;28;20273;-66
2021/05/18 00:29:10;;;;;;;;;;;384.40;2150.40;;;;;;5114217;28;19948;-66
2021/05/18 00:31:35;;;;;;;;;;;384.40;2150.40;;;;;;5113587;28;19951;-66
2021/05/18 00:34:02;;;;;;;;;;;384.40;2150.40;;;;;;5113819;28;20282;-66
2021/05/18 00:36:28;;;;;;;;;;;384.30;2150.40;;;;;;5104114;28;19942;-66
2021/05/18 00:38:53;;;;;;;;;;;384.20;2176.00;;;;;;5076926;28;19955;-67
2021/05/18 00:41:19;;;;;;;;;;;384.30;2150.40;;;;;;5113725;28;19919;-65
2021/05/18 00:43:45;;;;;;;;;;;384.30;2124.80;;;;;;5113907;28;19931;-68
2021/05/18 00:46:11;;;;;;;;;;;384.30;2124.80;;;;;;5113388;28;19919;-69
2021/05/18 00:48:37;;;;;;;;;;;384.30;2124.80;;;;;;5113583;28;20017;-68
2021/05/18 00:51:04;;;;;;;;;;;384.30;2099.20;;;;;;5113662;28;19911;-68
2021/05/18 00:53:30;;;;;;;;;;;384.20;2124.80;;;;;;5113493;28;19907;-66
2021/05/18 00:58:44;;;;;;;;;;;384.30;2124.80;;;;;;5050751;28;19920;-66
2021/05/18 01:01:16;;;;;;;;;;;384.30;2099.20;;;;;;5049060;28;19909;-66
2021/05/18 01:03:43;;;;;;;;;;;384.30;2073.60;;;;;;5033900;28;20397;-67
2021/05/18 01:06:19;;;;;;;;;;;384.40;2073.60;;;;;;5050455;28;19951;-67
2021/05/18 01:08:45;;;;;;;;;;;384.30;2073.60;;;;;;5050756;28;19952;-67
2021/05/18 01:11:12;;;;;;;;;;;384.30;2073.60;;;;;;5050408;28;19909;-68
2021/05/18 01:13:38;;;;;;;;;;;384.30;2073.60;;;;;;5050644;28;20367;-67
2021/05/18 01:16:04;;;;;;;;;;;384.20;2099.20;;;;;;5050506;28;19921;-67
2021/05/18 01:18:55;;;;;;;;;;;384.20;2099.20;;;;;;5044872;28;19921;-70
2021/05/18 01:21:21;;;;;;;;;;;384.10;2073.60;;;;;;5042374;28;20374;-67
2021/05/18 01:23:47;;;;;;;;;;;384.30;2073.60;;;;;;5050457;28;19944;-68
2021/05/18 01:26:13;;;;;;;;;;;384.30;2073.60;;;;;;5048142;28;19993;-68
2021/05/18 01:28:39;;;;;;;;;;;384.20;2073.60;;;;;;5050425;28;19913;-69
2021/05/18 01:31:05;;;;;;;;;;;384.20;2099.20;;;;;;5046865;28;20313;-68
2021/05/18 01:33:31;;;;;;;;;;;384.20;2073.60;;;;;;5047319;28;19909;-67
2021/05/18 01:35:57;;;;;;;;;;;384.20;2073.60;;;;;;5082199;28;20506;-67
2021/05/18 01:38:26;;;;;;;;;;;384.10;2073.60;;;;;;5104206;28;19908;-68
2021/05/18 01:43:35;;;;;;;;;;;384.00;2073.60;;;;;;5113349;28;19957;-67
2021/05/18 01:46:01;;;;;;;;;;;384.00;2073.60;;;;;;5112761;28;19920;-69
2021/05/18 01:48:27;;;;;;;;;;;384.10;2048.00;;;;;;5112889;28;20392;-68
2021/05/18 01:53:48;;;;;;;;;;;384.20;2176.00;;;;;;5423124;22;20086;-67
2021/05/18 01:56:30;;;;;;;;;;;384.10;2073.60;;;;;;5096088;28;19919;-71
2021/05/18 01:59:00;;;;;;;;;;;359.30;2099.20;;;;;;5113104;28;20376;-73
2021/05/18 02:01:26;;;;;;;;;;;359.30;2099.20;;;;;;5112688;28;19955;-70
2021/05/18 02:03:51;;;;;;;;;;;359.20;2252.80;;;;;;5085179;28;20601;-66
2021/05/18 02:06:17;;;;;;;;;;;359.30;2048.00;;;;;;5108062;28;19908;-69
2021/05/18 02:08:42;;;;;;;;;;;359.20;2073.60;;;;;;5112995;28;19912;-68
2021/05/18 02:11:08;;;;;;;;;;;359.20;2073.60;;;;;;5112934;28;19943;-71
2021/05/18 02:13:33;;;;;;;;;;;359.20;2073.60;;;;;;5094493;28;19998;-65
2021/05/18 02:16:05;;;;;;;;;;;359.20;2073.60;;;;;;5112973;28;19916;-70
2021/05/18 02:18:49;;;;;;;;;;;359.10;2073.60;;;;;;5112797;28;20358;-67
2021/05/18 02:26:36;;;;;;;;;;;359.10;2073.60;;;;;;5111098;28;19918;-70
2021/05/18 02:29:02;;;;;;;;;;;359.10;2048.00;;;;;;5117027;28;19907;-69
2021/05/18 02:31:27;;;;;;;;;;;359.00;2073.60;;;;;;5116639;28;19931;-65
2021/05/18 02:33:53;;;;;;;;;;;359.10;2048.00;;;;;;5116290;28;19911;-64
2021/05/18 02:36:21;;;;;;;;;;;359.10;2048.00;;;;;;5116482;28;19908;-70
2021/05/18 02:38:47;;;;;;;;;;;359.00;2048.00;;;;;;5116362;28;19952;-69
2021/05/18 02:41:13;;;;;;;;;;;;;;;;;;5116743;28;20327;-70
2021/05/18 02:43:49;;;;;;;;;;;359.10;2022.40;;;;;;5115911;28;19908;-67
2021/05/18 02:51:30;;;;;;;;;;;359.00;2022.40;;;;;;5116257;28;20243;-65
2021/05/18 02:53:56;;;;;;;;;;;358.80;2048.00;;;;;;5112421;28;19924;-62
2021/05/18 02:58:58;;;;;;;;;;;358.70;2073.60;;;;;;5116184;28;19908;-64
2021/05/18 03:01:23;;;;;;;;;;;358.70;2099.20;;;;;;5116063;28;19919;-68
2021/05/18 03:03:49;;;;;;;;;;;358.80;2073.60;;;;;;5116109;28;19908;-68
2021/05/18 03:06:14;;;;;;;;;;;358.70;2073.60;;;;;;5116047;28;20007;-68
2021/05/18 03:08:40;;;;;;;;;;;358.80;2048.00;;;;;;5115929;28;19931;-70
2021/05/18 03:11:09;;;;;;;;;;;358.90;2048.00;;;;;;5115595;28;19998;-70
2021/05/18 03:13:35;;;;;;;;;;;358.90;2048.00;;;;;;5115764;28;20369;-64
2021/05/18 03:16:01;;;;;;;;;;;358.90;2022.40;;;;;;5115714;28;19977;-65
2021/05/18 03:18:26;;;;;;;;;;;358.90;2022.40;;;;;;5115613;28;19908;-67
2021/05/18 03:20:52;;;;;;;;;;;358.90;2022.40;;;;;;5116003;28;20278;-68
2021/05/18 03:23:18;;;;;;;;;;;358.90;2022.40;;;;;;5115476;28;19916;-63
2021/05/18 03:25:43;;;;;;;;;;;358.90;2048.00;;;;;;5106193;28;19915;-67
2021/05/18 03:28:09;;;;;;;;;;;358.90;2022.40;;;;;;5115658;28;19912;-63
2021/05/18 03:36:05;;;;;;;;;;;358.90;2022.40;;;;;;5072639;28;19963;-69
2021/05/18 03:38:37;;;;;;;;;;;359.00;1996.80;;;;;;5072168;28;19959;-66
2021/05/18 03:41:29;;;;;;;;;;;358.70;2048.00;;;;;;5072578;28;19920;-67
2021/05/18 04:04:50;;;;;;;;;;;358.90;2022.40;;;;;;5072404;28;19915;-65
2021/05/18 04:12:54;;;;;;;;;;;359.10;2022.40;;;;;;5090636;28;19931;-69
2021/05/18 04:18:15;;;;;;;;;;;359.10;1996.80;;;;;;5114796;28;20361;-69
2021/05/18 05:00:51;;;;;;;;;;;384.20;2022.40;;;;;;5113844;28;20384;-71
2021/05/18 05:06:52;;;;;;;;;;;384.20;1996.80;;;;;;5096341;28;20423;-67
2021/05/18 05:08:58;;;;;;;;;;;384.20;2022.40;;;;;;5083093;28;19954;-70
2021/05/18 05:14:17;;;;;;;;;;;384.30;2048.00;;;;;;5113431;28;19959;-70
2021/05/18 05:16:43;;;;;;;;;;;384.20;2073.60;;;;;;5113563;28;19920;-68
2021/05/18 05:19:08;;;;;;;;;;;384.30;2099.20;;;;;;5113625;28;20375;-65
2021/05/18 05:21:34;;;;;;;;;;;384.60;2073.60;;;;;;5113228;28;19994;-68
2021/05/18 05:24:00;;;;;;;;;;;384.80;1971.20;;;;;;5109574;28;20473;-70
2021/05/18 05:26:27;;;;;;;;;;;384.70;1996.80;;;;;;5108551;28;19923;-67
2021/05/18 05:28:52;;;;;;;;;;;409.60;2022.40;;;;;;5113297;28;19919;-69
2021/05/18 05:31:18;;;;;;;;;;;409.80;1996.80;;;;;;5113281;28;20277;-68
2021/05/18 05:33:44;;;;;;;;;;;409.90;1971.20;;;;;;5112803;28;20284;-70
2021/05/18 05:36:09;;;;;;;;;;;410.00;1971.20;;;;;;5113250;28;19920;-70
2021/05/18 05:38:35;;;;;;;;;;;410.10;1971.20;;;;;;5112725;28;20384;-69
2021/05/18 05:41:01;;;;;;;;;;;;;;;;;;5113195;28;19915;-70
2021/05/18 05:43:27;;;;;;;;;;;;;;;;;;5112930;28;19960;-69
2021/05/18 05:45:53;;;;;;;;;;;;;;;;;;5113018;28;19981;-64
2021/05/18 05:48:19;;;;;;;;;;;;;;;;;;5113108;28;19915;-68
2021/05/18 05:50:45;;;;;;;;;;;;;;;;;;5112653;28;19912;-70
2021/05/18 05:53:11;;;;;;;;;;;;;;;;;;5112613;28;19924;-64
2021/05/18 05:55:37;;;;;;;;;;;;;;;;;;5099506;28;20383;-70
2021/05/18 05:58:03;;;;;;;;;;;;;;;;;;5115641;28;20269;-64
2021/05/18 06:00:28;;;;;;;;;;;435.50;1817.60;;;;;;5116848;28;20332;-65
2021/05/18 06:02:54;;;;;;;;;;;435.40;1792.00;;;;;;5116773;28;19958;-65
2021/05/18 06:05:19;;;;;;;;;;;435.50;1817.60;;;;;;5117083;28;19908;-65
2021/05/18 06:07:45;;;;;;;;;;;435.20;1843.20;;;;;;5116578;28;19914;-65
2021/05/18 06:10:15;;;;;;;;;;;435.70;1843.20;;;;;;5116836;28;20392;-67
2021/05/18 06:16:16;;;;;;;;;;;435.90;1894.40;;;;;;5073794;28;19927;-68
2021/05/18 06:42:56;;;;;;;;;;;;;;;;;;5073497;28;20318;-70
2021/05/18 06:48:07;;;;;;;;;;;;;;;;;;5073374;28;20455;-65
2021/05/18 06:50:33;;;;;;;;;;;;;;;;;;5109456;28;19908;-70
2021/05/18 06:52:59;;;;;;;;;;;;;;;;;;5115583;28;20345;-70
2021/05/18 06:55:30;;;;;;;;;;;512.00;1459.20;;;;;;5102408;28;20363;-65
2021/05/18 06:58:20;;;;;;;;;;;487.20;1484.80;;;;;;5115579;28;19912;-69
2021/05/18 07:00:42;;;;;;;;;;;487.10;1459.20;;;;;;5115357;28;20353;-70
2021/05/18 07:03:13;;;;;;;;;;;487.10;1484.80;;;;;;5115614;28;19961;-65
2021/05/18 07:10:36;;;;;;;;;;;487.20;1433.60;;;;;;5115520;28;19912;-70
2021/05/18 07:13:01;;;;;;;;;;;487.30;1433.60;;;;;;5115339;28;19915;-68
2021/05/18 07:15:28;;;;;;;;;;;487.30;1382.40;;;;;;5115515;28;19968;-69
2021/05/18 07:17:56;;;;;;;;;;;512.10;1356.80;;;;;;5114413;28;20463;-69
2021/05/18 07:20:22;;;;;;;;;;;512.20;1331.20;;;;;;5102853;28;20272;-70
2021/05/18 07:22:50;;;;;;;;;;;;;;;;;;5115471;28;19912;-69
2021/05/18 07:25:16;;;;;;;;;;;;;;;;;;5106902;28;19915;-64
2021/05/18 07:27:42;;;;;;;;;;;;;;;;;;5115388;28;20376;-70
2021/05/18 07:30:08;;;;;;;;;;;;;;;;;;5115512;28;19936;-69
2021/05/18 07:32:34;;;;;;;;;;;;;;;;;;5115139;28;19959;-70
2021/05/18 07:35:00;;;;;;;;;;;;;;;;;;5114909;28;19916;-69
2021/05/18 07:37:26;;;;;;;;;;;;;;;;;;5115028;28;19914;-69
2021/05/18 07:39:52;;;;;;;;;;;;;;;;;;5115140;28;19915;-66
2021/05/18 07:42:18;;;;;;;;;;;;;;;;;;5115050;28;19912;-66
2021/05/18 07:44:44;;;;;;;;;;;;;;;;;;5115052;28;19912;-67
2021/05/18 07:47:12;;;;;;;;;;;;;;;;;;5114825;28;19908;-68
2021/05/18 07:49:42;;;;;;;;;;;;;;;;;;5114717;28;19912;-67
2021/05/18 08:05:36;;;;;;;;;;;;;;;;;;5114513;28;20425;-66
2021/05/18 08:08:02;;;;;;;;;;;;;;;;;;5114502;28;19951;-71
2021/05/18 08:12:56;;;;;;;;;;;563.20;1152.00;;;;;;5114735;28;19940;-66
2021/05/18 08:58:24;;;;;;;;;;;;;;;;;;5011164;28;20018;-67
2021/05/18 09:02:21;;;;;;;;;;;;;;;;;;5010920;28;20283;-66
2021/05/18 09:30:51;;;;;;;;;;;;;;;;;;4958800;28;20355;-69
2021/05/18 10:35:47;;;;;;;;;;;640.40;768.00;;;;;;5049792;28;19917;-67
2021/05/18 10:38:19;;;;;;;;;;;640.40;768.00;;;;;;4990353;28;19941;-71
2021/05/18 10:40:45;;;;;;;;;;;640.50;768.00;;;;;;4990552;28;19910;-70
2021/05/18 10:43:16;;;;;;;;;;;640.50;768.00;;;;;;4991748;28;19914;-71
2021/05/18 10:45:58;;;;;;;;;;;640.40;793.60;;;;;;4993841;28;19910;-71
2021/05/18 10:48:52;;;;;;;;;;;640.20;793.60;;;;;;4977547;28;19917;-70
2021/05/18 10:51:33;;;;;;;;;;;640.00;793.60;;;;;;4989189;28;20430;-66
2021/05/18 10:54:04;;;;;;;;;;;615.30;819.20;;;;;;4992816;28;20434;-66
2021/05/18 10:56:30;;;;;;;;;;;615.30;819.20;;;;;;4993781;28;19932;-72
2021/05/18 10:58:56;;;;;;;;;;;640.00;819.20;;;;;;4993667;28;20298;-67
2021/05/18 11:01:21;;;;;;;;;;;640.00;819.20;;;;;;4993584;28;19910;-67
2021/05/18 11:03:47;;;;;;;;;;;640.10;844.80;;;;;;5002589;28;19940;-71
2021/05/18 11:06:13;;;;;;;;;;;640.20;844.80;;;;;;5049779;28;19940;-66
2021/05/18 11:08:38;;;;;;;;;;;640.40;793.60;;;;;;5052832;28;20337;-69
2021/05/18 11:11:07;;;;;;;;;;;640.60;768.00;;;;;;5052410;28;20475;-67
2021/05/18 11:13:33;;;;;;;;;;;640.70;768.00;;;;;;5058665;28;19915;-67
2021/05/18 11:15:59;;;;;;;;;;;640.60;768.00;;;;;;5115464;28;20333;-68
2021/05/18 11:18:33;;;;;;;;;;;665.60;768.00;;;;;;5115149;28;19954;-71
2021/05/18 11:21:08;;;;;;;;;;;640.90;768.00;;;;;;5115367;28;19939;-67
2021/05/18 11:23:33;;;;;;;;;;;640.90;768.00;;;;;;5105654;28;19961;-69
2021/05/18 11:26:06;;;;;;;;;;;665.60;793.60;;;;;;5089429;28;20304;-70
2021/05/18 11:28:35;;;;;;;;;;;665.70;793.60;;;;;;5076538;28;19908;-71
2021/05/18 11:31:02;;;;;;;;;;;665.60;793.60;;;;;;5094448;28;19908;-68
2021/05/18 11:33:28;;;;;;;;;;;;;;;;;;5094367;28;19912;-66
2021/05/18 11:35:54;;;;;;;;;;;;;;;;;;5094814;28;19924;-67
2021/05/18 11:38:20;;;;;;;;;;;;;;;;;;5094622;28;19908;-71
2021/05/18 11:40:45;;;;;;;;;;;;;;;;;;5094222;28;20340;-72
2021/05/18 11:43:11;;;;;;;;;;;;;;;;;;5094496;28;19995;-72
2021/05/18 11:45:37;;;;;;;;;;;;;;;;;;5094264;28;20002;-69
2021/05/18 11:48:03;;;;;;;;;;;;;;;;;;5094766;28;19947;-71
2021/05/18 11:50:29;;;;;;;;;;;;;;;;;;5094367;28;20361;-71
2021/05/18 11:52:55;;;;;;;;;;;;;;;;;;5094269;28;20342;-72
2021/05/18 11:55:21;;;;;;;;;;;;;;;;;;5081255;28;19920;-71
2021/05/18 11:57:47;;;;;;;;;;;;;;;;;;5094509;28;19908;-67
2021/05/18 12:00:13;;;;;;;;;;;;;;;;;;5094188;28;19908;-67
2021/05/18 12:02:39;;;;;;;;;;;;;;;;;;5094197;28;19908;-69
2021/05/18 12:05:05;;;;;;;;;;;;;;;;;;5094318;28;19915;-69
2021/05/18 12:07:31;;;;;;;;;;;;;;;;;;5093932;28;19919;-66
2021/05/18 12:09:56;;;;;;;;;;;;;;;;;;5093792;28;19915;-72
2021/05/18 12:12:22;;;;;;;;;;;;;;;;;;5094430;28;19915;-69
2021/05/18 12:14:48;;;;;;;;;;;;;;;;;;5093952;28;20031;-71
2021/05/18 12:17:14;;;;;;;;;;;;;;;;;;5075586;28;19999;-71
2021/05/18 12:19:40;;;;;;;;;;;;;;;;;;5093747;28;19916;-67
2021/05/18 12:22:06;;;;;;;;;;;;;;;;;;5094051;28;19951;-72
2021/05/18 12:24:32;;;;;;;;;;;;;;;;;;5089046;28;19912;-71
2021/05/18 12:26:58;;;;;;;;;;;;;;;;;;5094077;28;19912;-69
2021/05/18 12:29:24;;;;;;;;;;;;;;;;;;5093852;28;19939;-67
2021/05/18 12:31:50;;;;;;;;;;;;;;;;;;5093392;28;19924;-71
2021/05/18 12:34:16;;;;;;;;;;;;;;;;;;5093705;28;19908;-71
2021/05/18 12:36:42;;;;;;;;;;;;;;;;;;5073347;28;20282;-69
2021/05/18 12:39:08;;;;;;;;;;;;;;;;;;5073281;28;19915;-69
2021/05/18 12:41:33;;;;;;;;;;;;;;;;;;5087243;28;19919;-69
2021/05/18 12:43:59;;;;;;;;;;;;;;;;;;5093299;28;19908;-72
2021/05/18 12:46:25;;;;;;;;;;;;;;;;;;5093696;28;19914;-66
2021/05/18 12:48:51;;;;;;;;;;;;;;;;;;5093167;28;20332;-71
2021/05/18 12:51:17;;;;;;;;;;;;;;;;;;5093374;28;20433;-72
2021/05/18 12:53:43;;;;;;;;;;;;;;;;;;5092678;28;20310;-71
2021/05/18 12:56:12;;;;;;;;;;;;;;;;;;5081270;28;19927;-71
2021/05/18 12:58:38;;;;;;;;;;;;;;;;;;5093101;28;20312;-67
2021/05/18 13:01:04;;;;;;;;;;;;;;;;;;5092967;28;19908;-69
2021/05/18 13:03:30;;;;;;;;;;;;;;;;;;5093173;28;19957;-69
2021/05/18 13:05:56;;;;;;;;;;;;;;;;;;5074655;28;20002;-71
2021/05/18 13:08:22;;;;;;;;;;;;;;;;;;5093042;28;19997;-70
2021/05/18 13:13:43;;;;;;;;;;;;;;;;;;5030412;28;19928;-69
2021/05/18 13:16:09;;;;;;;;;;;;;;;;;;5030603;28;20011;-68
2021/05/18 13:18:35;;;;;;;;;;;;;;;;;;5030728;28;19909;-70
2021/05/18 13:21:01;;;;;;;;;;;;;;;;;;5030774;28;19964;-71
2021/05/18 13:23:41;;;;;;;;;;;;;;;;;;5030371;28;20330;-71
2021/05/18 13:26:27;;;;;;;;;;;;;;;;;;5025923;28;19913;-69
2021/05/18 13:28:53;;;;;;;;;;;;;;;;;;5030475;28;19909;-69
2021/05/18 13:31:18;;;;;;;;;;;;;;;;;;5030310;28;20371;-67
2021/05/18 13:33:44;;;;;;;;;;;;;;;;;;5030102;28;19917;-70
2021/05/18 13:36:10;;;;;;;;;;;;;;;;;;5013599;28;19924;-69
2021/05/18 13:38:36;;;;;;;;;;;;;;;;;;5030127;28;20003;-67
2021/05/18 13:41:02;;;;;;;;;;;;;;;;;;5013443;28;19999;-69
2021/05/18 13:43:28;;;;;;;;;;;;;;;;;;5030176;28;19909;-70
2021/05/18 13:45:54;;;;;;;;;;;;;;;;;;5030403;28;19925;-65
2021/05/18 13:48:20;;;;;;;;;;;;;;;;;;5030547;28;19920;-70
2021/05/18 13:50:46;;;;;;;;;;;;;;;;;;5078670;28;19908;-68
2021/05/18 13:53:13;;;;;;;;;;;;;;;;;;5074239;28;19923;-71
2021/05/18 13:55:39;;;;;;;;;;;;;;;;;;5080773;28;19927;-71
2021/05/18 13:58:05;;;;;;;;;;;;;;;;;;5092442;28;20003;-71
2021/05/18 14:00:31;;;;;;;;;;;;;;;;;;5092518;28;19912;-71
2021/05/18 14:02:57;;;;;;;;;;;;;;;;;;5092300;28;19908;-69
2021/05/18 14:05:24;;;;;;;;;;;;;;;;;;5092408;28;19912;-70
2021/05/18 14:10:19;;;;;;;;;;;;;;;;;;5092493;28;20386;-71
2021/05/18 14:12:45;;;;;;;;;;;;;;;;;;5092483;28;19985;-71
2021/05/18 14:15:11;;;;;;;;;;;;;;;;;;5092270;28;19916;-65
2021/05/18 14:17:37;;;;;;;;;;;;;;;;;;5092925;28;20368;-69
2021/05/18 14:20:03;;;;;;;;;;;;;;;;;;5096202;28;19908;-71
2021/05/18 14:22:29;;;;;;;;;;;;;;;;;;5067050;28;19908;-72
2021/05/18 14:25:15;;;;;;;;;;;;;;;;;;5088320;28;19965;-72
2021/05/18 14:27:41;;;;;;;;;;;;;;;;;;5095686;28;19908;-70
2021/05/18 14:30:07;;;;;;;;;;;;;;;;;;5095961;28;20333;-69
2021/05/18 14:32:33;;;;;;;;;;;;;;;;;;5096400;28;19912;-71
2021/05/18 14:34:59;;;;;;;;;;;;;;;;;;5095902;28;19923;-72
2021/05/18 14:37:25;;;;;;;;;;;;;;;;;;5096057;28;19908;-69
2021/05/18 14:45:36;;;;;;;;;;;;;;;;;;4993780;28;19917;-71
2021/05/18 14:55:57;;;;;;;;;;;;;;;;;;4982709;28;19988;-71
2021/05/18 14:58:23;;;;;;;;;;;;;;;;;;4993701;28;19913;-71
2021/05/18 15:00:49;;;;;;;;;;;;;;;;;;4993418;28;20864;-71
2021/05/18 15:03:15;;;;;;;;;;;;;;;;;;4993722;28;20375;-70
2021/05/18 15:05:41;;;;;;;;;;;;;;;;;;4993468;28;19940;-72
2021/05/18 15:08:07;;;;;;;;;;;;;;;;;;4993358;28;19964;-72
2021/05/18 15:10:33;;;;;;;;;;;;;;;;;;4993368;28;19920;-70
2021/05/18 15:12:59;;;;;;;;;;;;;;;;;;4993187;28;19910;-70
2021/05/18 15:15:25;;;;;;;;;;;;;;;;;;4993386;28;19918;-70
2021/05/18 15:17:52;;;;;;;;;;;;;;;;;;4993044;28;19910;-71
2021/05/18 15:20:18;;;;;;;;;;;;;;;;;;5022891;28;20277;-69
2021/05/18 15:22:44;;;;;;;;;;;;;;;;;;5084806;28;19970;-70
2021/05/18 15:25:10;;;;;;;;;;;;;;;;;;5090652;28;19916;-72
2021/05/18 15:27:36;;;;;;;;;;;;;;;;;;5095244;28;19908;-71
2021/05/18 15:30:02;;;;;;;;;;;;;;;;;;5094740;28;19908;-71
2021/05/18 15:32:29;;;;;;;;;;;;;;;;;;5094777;28;19912;-71
2021/05/18 15:34:55;;;;;;;;;;;;;;;;;;5094732;28;20008;-69
2021/05/18 15:37:21;;;;;;;;;;;;;;;;;;5094885;28;19959;-72
2021/05/18 15:39:47;;;;;;;;;;;;;;;;;;5094843;28;19908;-72
2021/05/18 15:42:13;;;;;;;;;;;;;;;;;;5094389;28;19961;-72
2021/05/18 15:44:39;;;;;;;;;;;;;;;;;;5094453;28;20275;-71
2021/05/18 15:47:04;;;;;;;;;;;;;;;;;;5094430;28;20447;-71
2021/05/18 15:49:31;;;;;;;;;;;;;;;;;;5094521;28;19925;-71
2021/05/18 15:51:57;;;;;;;;;;;;;;;;;;5094417;28;20370;-72
2021/05/18 15:54:23;;;;;;;;;;;;;;;;;;5093429;28;19927;-71
2021/05/18 15:56:48;;;;;;;;;;;;;;;;;;5093556;28;20324;-71
2021/05/18 15:59:14;;;;;;;;;;;;;;;;;;5093198;28;19908;-71
2021/05/18 16:01:40;;;;;;;;;;;;;;;;;;5093443;28;20009;-71
2021/05/18 16:04:06;;;;;;;;;;;;;;;;;;5093160;28;19951;-68
2021/05/18 16:06:33;;;;;;;;;;;;;;;;;;5093199;28;19908;-69
2021/05/18 16:08:59;;;;;;;;;;;;;;;;;;5075304;28;20356;-69
2021/05/18 16:11:25;;;;;;;;;;;;;;;;;;5093151;28;20344;-69
2021/05/18 16:13:51;;;;;;;;;;;;;;;;;;5093278;28;19944;-67
2021/05/18 16:16:17;;;;;;;;;;;;;;;;;;5092983;28;19955;-69
2021/05/18 16:18:43;;;;;;;;;;;;;;;;;;5093056;28;19908;-69
2021/05/18 16:21:09;;;;;;;;;;;;;;;;;;5093216;28;19908;-69
2021/05/18 16:23:38;;;;;;;;;;;;;;;;;;5092818;28;19916;-70
2021/05/18 16:26:04;;;;;;;;;;;;;;;;;;5092860;28;19916;-70
2021/05/18 16:28:30;;;;;;;;;;;;;;;;;;5074452;28;20274;-70
2021/05/18 16:30:57;;;;;;;;;;;;;;;;;;5092747;28;19908;-70
2021/05/18 16:33:23;;;;;;;;;;;;;;;;;;5093399;28;19942;-70
2021/05/18 16:35:49;;;;;;;;;;;;;;;;;;5092739;28;19967;-71
2021/05/18 16:38:15;;;;;;;;;;;;;;;;;;5092860;28;19908;-70
2021/05/18 16:40:41;;;;;;;;;;;;;;;;;;5092281;28;19931;-70
2021/05/18 16:43:07;;;;;;;;;;;;;;;;;;5092699;28;20366;-70
2021/05/18 16:45:34;;;;;;;;;;;;;;;;;;5074506;28;19913;-70
2021/05/18 16:48:00;;;;;;;;;;;;;;;;;;5092744;28;19992;-70
2021/05/18 16:50:26;;;;;;;;;;;;;;;;;;5092561;28;19940;-70
2021/05/18 16:52:52;;;;;;;;;;;;;;;;;;5043282;28;1400009;-71
2021/05/18 16:55:18;;;;;;;;;;;;;;;;;;5093087;28;19916;-70
2021/05/18 16:57:44;;;;;;;;;;;;;;;;;;5093220;28;19980;-71
2021/05/18 17:00:10;;;;;;;;;;;;;;;;;;5089578;28;19908;-70
2021/05/18 17:02:36;;;;;;;;;;;;;;;;;;5093096;28;20349;-70
2021/05/18 17:05:02;;;;;;;;;;;;;;;;;;5093383;28;19919;-71
2021/05/18 17:07:28;;;;;;;;;;;;;;;;;;5093400;28;19909;-71
2021/05/18 17:09:54;;;;;;;;;;;;;;;;;;5093297;28;20382;-71
2021/05/18 17:12:20;;;;;;;;;;;;;;;;;;5092992;28;19916;-71
2021/05/18 17:14:46;;;;;;;;;;;;;;;;;;5092680;28;20366;-71
2021/05/18 17:17:14;;;;;;;;;;;;;;;;;;5093135;28;19908;-71
2021/05/18 17:19:40;;;;;;;;;;;;;;;;;;5092807;28;19961;-70
2021/05/18 17:22:05;;;;;;;;;;;;;;;;;;5093161;28;20015;-69
2021/05/18 17:24:31;;;;;;;;;;;;;;;;;;5092771;28;20002;-67
2021/05/18 17:26:58;;;;;;;;;;;;;;;;;;5092918;28;19919;-67
2021/05/18 17:29:24;;;;;;;;;;;;;;;;;;5092996;28;20015;-67
2021/05/18 17:31:50;;;;;;;;;;;;;;;;;;5092907;28;19959;-67
2021/05/18 17:34:18;;;;;;;;;;;;;;;;;;5092834;28;19908;-67
2021/05/18 17:36:44;;;;;;;;;;;;;;;;;;5092572;28;19924;-67
2021/05/18 17:39:10;;;;;;;;;;;;;;;;;;5093012;28;20266;-69
2021/05/18 17:41:36;;;;;;;;;;;;;;;;;;5092670;28;19915;-69
2021/05/18 17:44:02;;;;;;;;;;;;;;;;;;5092873;28;19908;-70
2021/05/18 17:46:31;;;;;;;;;;;;;;;;;;5092808;28;19915;-70
2021/05/18 17:48:56;;;;;;;;;;;;;;;;;;5092504;28;20398;-72
2021/05/18 17:51:23;;;;;;;;;;;;;;;;;;5092855;28;20012;-72
2021/05/18 17:53:49;;;;;;;;;;;;;;;;;;5094870;28;19920;-71
2021/05/18 17:56:15;;;;;;;;;;;;;;;;;;5096652;28;20023;-71
2021/05/18 17:58:41;;;;;;;;;;;;;;;;;;5096403;28;19908;-71
2021/05/18 18:01:06;;;;;;;;;;;;;;;;;;5096682;28;20313;-71
2021/05/18 18:03:32;;;;;;;;;;;;;;;;;;5097118;28;20010;-71
2021/05/18 18:05:58;;;;;;;;;;;;;;;;;;5087726;28;19916;-71
2021/05/18 18:08:25;;;;;;;;;;;;;;;;;;5082729;28;19920;-69
2021/05/18 18:10:51;;;;;;;;;;;;;;;;;;5064078;28;20000;-72
2021/05/18 18:13:17;;;;;;;;;;;;;;;;;;5059475;28;19944;-71
2021/05/18 18:15:43;;;;;;;;;;;;;;;;;;5068880;28;20286;-72
2021/05/18 18:18:09;;;;;;;;;;;;;;;;;;5068180;28;19912;-72
2021/05/18 18:20:35;;;;;;;;;;;;;;;;;;5077266;28;20420;-70
2021/05/18 18:23:00;;;;;;;;;;;;;;;;;;5078038;28;20388;-72
2021/05/18 18:25:26;;;;;;;;;;;;;;;;;;5069499;28;19927;-71
2021/05/18 18:27:52;;;;;;;;;;;;;;;;;;5087516;28;19954;-70
2021/05/18 18:30:18;;;;;;;;;;;;;;;;;;5082787;28;19909;-70
2021/05/18 18:32:44;;;;;;;;;;;;;;;;;;5064639;28;19923;-71
2021/05/18 18:35:10;;;;;;;;;;;;;;;;;;5057984;28;19973;-71
2021/05/18 18:37:37;;;;;;;;;;;538.00;1510.40;;;;;;5057219;28;20366;-70
2021/05/18 18:40:07;;;;;;;;;;;537.90;1510.40;;;;;;5066826;28;19913;-71
2021/05/18 18:42:33;;;;;;;;;;;;;;;;;;5064940;28;20447;-71
2021/05/18 18:44:58;;;;;;;;;;;;;;;;;;5070085;28;19908;-71
2021/05/18 18:47:24;;;;;;;;;;;;;;;;;;5067383;28;20040;-71
2021/05/18 18:49:52;;;;;;;;;;;;;;;;;;5076809;28;20334;-72
2021/05/18 18:55:10;;;;;;;;;;;;;;;;;;5071152;28;19931;-71
2021/05/18 18:57:36;;;;;;;;;;;;;;;;;;5088930;28;19912;-72
2021/05/18 19:00:02;;;;;;;;;;;;;;;;;;5079003;28;19915;-71
2021/05/18 19:02:37;;;;;;;;;;;;;;;;;;5089642;28;20006;-70
2021/05/18 19:05:13;;;;;;;;;;;;;;;;;;5095444;28;19908;-71
2021/05/18 19:07:45;;;;;;;;;;;;;;;;;;5095230;28;20363;-71
2021/05/18 19:10:19;;;;;;;;;;;487.30;1510.40;;;;;;5095342;28;19908;-71
2021/05/18 19:12:48;;;;;;;;;;;487.30;1510.40;;;;;;5095227;28;20067;-71
2021/05/18 19:15:14;;;;;;;;;;;512.10;1536.00;;;;;;5095877;28;19923;-71
2021/05/18 19:17:40;;;;;;;;;;;512.10;1561.60;;;;;;5095379;28;20355;-71
2021/05/18 19:20:06;;;;;;;;;;;512.10;1561.60;;;;;;5095298;28;19953;-71
2021/05/18 19:22:32;;;;;;;;;;;;;;;;;;5095150;28;20274;-70
2021/05/18 19:24:58;;;;;;;;;;;;;;;;;;5095118;28;19923;-71
2021/05/18 19:27:24;;;;;;;;;;;;;;;;;;5076983;28;20380;-71
2021/05/18 19:29:53;;;;;;;;;;;;;;;;;;5094858;28;20389;-71
2021/05/18 19:32:18;;;;;;;;;;;;;;;;;;5095115;28;19908;-71
2021/05/18 19:34:45;;;;;;;;;;;;;;;;;;5095066;28;20310;-71
2021/05/18 19:37:21;;;;;;;;;;;;;;;;;;5095421;28;19965;-71
2021/05/18 19:47:44;;;;;;;;;;;;;;;;;;5032508;28;20017;-67
2021/05/18 19:48:27;;;;;;;;;;;;;;;;;;5032425;28;20021;-70
2021/05/18 19:50:53;;;;;;;;;;;;;;;;;;5032355;28;19909;-70
2021/05/18 19:53:33;;;;;;;;;;;;;;;;;;5031977;28;20272;-70
2021/05/18 19:56:02;;;;;;;;;;;;;;;;;;5032309;28;19983;-72
2021/05/18 20:15:03;;;;;;;;;;;;;;;;;;4978570;28;19968;-71
2021/05/18 20:19:25;;;;;;;;;;;;;;;;;;4992401;28;20331;-71
2021/05/18 20:20:23;;;;;;;;;;;;;;;;;;4990688;28;20041;-70
2021/05/18 20:22:49;;;;;;;;;;;;;;;;;;5019989;28;20007;-71
2021/05/18 20:25:15;;;;;;;;;;;;;;;;;;5031680;28;20443;-71
2021/05/18 20:27:41;;;;;;;;;;;;;;;;;;5031853;28;20004;-71
2021/05/18 20:30:07;;;;;;;;;;;;;;;;;;5031652;28;19944;-71
2021/05/18 20:32:33;;;;;;;;;;;;;;;;;;5031751;28;20003;-71
2021/05/18 20:40:22;;;;;;;;;;;;;;;;;;5031641;28;19984;-70
2021/05/18 20:42:49;;;;;;;;;;;;;;;;;;5031586;28;19915;-70
2021/05/18 20:45:15;;;;;;;;;;;;;;;;;;5031346;28;19909;-71
2021/05/18 20:47:41;;;;;;;;;;;;;;;;;;5031600;28;19913;-71
2021/05/18 20:50:08;;;;;;;;;;;;;;;;;;5031269;28;20375;-70
2021/05/18 20:52:34;;;;;;;;;;;;;;;;;;5079253;28;19943;-70
2021/05/18 20:55:00;;;;;;;;;;;;;;;;;;5093290;28;19979;-71
2021/05/18 20:57:26;;;;;;;;;;;;;;;;;;5093333;28;19961;-71
2021/05/18 20:59:52;;;;;;;;;;;;;;;;;;5093212;28;19908;-71
2021/05/18 21:02:18;;;;;;;;;;;;;;;;;;5094051;28;19929;-71
2021/05/18 21:04:44;;;;;;;;;;;;;;;;;;5093293;28;20418;-71
2021/05/18 21:12:41;;;;;;;;;;;;;;;;;;5093225;28;20274;-70
2021/05/18 21:17:42;;;;;;;;;;;;;;;;;;5093304;28;19961;-71